Time;durP1;ratioP1;P1;durP2;ratioP2;P2;SDS_P1;SDS_P2;PMS_P1;PMS_P2;Temp;Humidity;BMP_temperature;BMP_pressure;BME280_temperature;BME280_humidity;BME280_pressure;Samples;Min_cycle;Max_cycle;Signal;HPM_P1;HPM_P2
2023/07/24 00:02:22;;;;;;;;;;;;;;;;;;5324330;28;19911;-75
2023/07/24 00:04:53;;;;;;;;;;;;;;;;;;5323483;28;19911;-75
2023/07/24 00:07:25;;;;;;;;;;;;;;;;;;5324263;28;20372;-75
2023/07/24 00:09:56;;;;;;;;;;;;;;;;;;5323386;28;19962;-75
2023/07/24 00:12:27;;;;;;;;;;;;;;;;;;5326299;28;19904;-75
2023/07/24 00:14:58;;;;;;;;;;;;;;;;;;5328200;28;19904;-75
2023/07/24 00:17:29;;;;;;;;;;;;;;;;;;5327222;28;20365;-75
2023/07/24 00:20:00;;;;;;;;;;;;;;;;;;5328328;28;19904;-75
2023/07/24 00:22:31;;;;;;;;;;;;;;;;;;5327440;28;19911;-75
2023/07/24 00:25:02;;;;;;;;;;;;;;;;;;5327496;28;19994;-75
2023/07/24 00:27:33;;;;;;;;;;;;;;;;;;5327461;28;19911;-74
2023/07/24 00:30:04;;;;;;;;;;;;;;;;;;5328272;28;20000;-74
2023/07/24 00:32:36;;;;;;;;;;;;;;;;;;5326707;28;19919;-75
2023/07/24 00:35:07;;;;;;;;;;;;;;;;;;5327981;28;19906;-74
2023/07/24 00:37:38;;;;;;;;;;;;;;;;;;5327417;28;19957;-74
2023/07/24 00:40:09;;;;;;;;;;;;;;;;;;5327091;28;19904;-74
2023/07/24 00:42:41;;;;;;;;;;;;;;;;;;5327139;28;19947;-74
2023/07/24 00:45:12;;;;;;;;;;;;;;;;;;5327215;28;19946;-74
2023/07/24 00:47:43;;;;;;;;;;;;;;;;;;5327055;28;19961;-74
2023/07/24 00:50:14;;;;;;;;;;;;;;;;;;5327634;28;19911;-74
2023/07/24 00:52:45;;;;;;;;;;;;;;;;;;5326412;28;19953;-74
2023/07/24 00:55:17;;;;;;;;;;;;;;;;;;5327786;28;20354;-74
2023/07/24 00:57:48;;;;;;;;;;;;;;;;;;5327143;28;19949;-74
2023/07/24 01:00:19;;;;;;;;;;;;;;;;;;5326760;28;20350;-74
2023/07/24 01:02:50;;;;;;;;;;;;;;;;;;5326702;28;19937;-74
2023/07/24 01:05:22;;;;;;;;;;;;;;;;;;5327401;28;20347;-74
2023/07/24 01:07:53;;;;;;;;;;;;;;;;;;5325979;28;19918;-74
2023/07/24 01:10:24;;;;;;;;;;;;;;;;;;5327069;28;19903;-74
2023/07/24 01:12:55;;;;;;;;;;;;;;;;;;5326371;28;19904;-74
2023/07/24 01:15:27;;;;;;;;;;;;;;;;;;5326481;28;19947;-74
2023/07/24 01:17:58;;;;;;;;;;;;;;;;;;5326992;28;19958;-75
2023/07/24 01:20:29;;;;;;;;;;;;;;;;;;5325688;28;20003;-74
2023/07/24 01:23:00;;;;;;;;;;;;;;;;;;5326778;28;20358;-74
2023/07/24 01:25:31;;;;;;;;;;;;;;;;;;5326463;28;20281;-74
2023/07/24 01:28:02;;;;;;;;;;;;;;;;;;5326113;28;20014;-74
2023/07/24 01:30:33;;;;;;;;;;;;;;;;;;5326448;28;19903;-75
2023/07/24 01:33:04;;;;;;;;;;;;;;;;;;5326634;28;19927;-75
2023/07/24 01:35:36;;;;;;;;;;;;;;;;;;5325459;28;20311;-75
2023/07/24 01:38:07;;;;;;;;;;;;;;;;;;5326701;28;19911;-75
2023/07/24 01:40:38;;;;;;;;;;;;;;;;;;5326022;28;20373;-76
2023/07/24 01:43:09;;;;;;;;;;;;;;;;;;5325956;28;19993;-75
2023/07/24 01:45:40;;;;;;;;;;;;;;;;;;5326078;28;19900;-76
2023/07/24 01:48:11;;;;;;;;;;;;;;;;;;5325691;28;19911;-76
2023/07/24 01:50:42;;;;;;;;;;;;;;;;;;5326046;28;19903;-76
2023/07/24 01:53:13;;;;;;;;;;;;;;;;;;5326523;28;19903;-77
2023/07/24 01:55:44;;;;;;;;;;;;;;;;;;5325061;28;20286;-76
2023/07/24 01:58:17;;;;;;;;;;;;;;;;;;5326232;28;19911;-75
2023/07/24 02:00:48;;;;;;;;;;;;;;;;;;5325784;28;19904;-75
2023/07/24 02:03:19;;;;;;;;;;;;;;;;;;5325315;28;19903;-75
2023/07/24 02:05:51;;;;;;;;;;;;;;;;;;5325756;28;20269;-76
2023/07/24 02:08:22;;;;;;;;;;;;;;;;;;5326165;28;19915;-75
2023/07/24 02:10:53;;;;;;;;;;;;;;;;;;5324847;28;19903;-74
2023/07/24 02:13:24;;;;;;;;;;;;;;;;;;5325695;28;19965;-76
2023/07/24 02:15:55;;;;;;;;;;;;;;;;;;5325640;28;19904;-75
2023/07/24 02:18:26;;;;;;;;;;;;;;;;;;5324836;28;19907;-75
2023/07/24 02:20:57;;;;;;;;;;;;;;;;;;5325819;28;19904;-75
2023/07/24 02:23:28;;;;;;;;;;;;;;;;;;5324773;28;19903;-75
2023/07/24 02:25:59;;;;;;;;;;;;;;;;;;5325320;28;19903;-75
2023/07/24 02:28:31;;;;;;;;;;;;;;;;;;5325146;28;20316;-75
2023/07/24 02:31:02;;;;;;;;;;;;;;;;;;5324843;28;19903;-75
2023/07/24 02:33:33;;;;;;;;;;;;;;;;;;5325081;28;19999;-75
2023/07/24 02:36:04;;;;;;;;;;;;;;;;;;5324935;28;20342;-75
2023/07/24 02:38:35;;;;;;;;;;;;;;;;;;5324040;28;19908;-75
2023/07/24 02:41:06;;;;;;;;;;;;;;;;;;5325331;28;19998;-75
2023/07/24 02:43:37;;;;;;;;;;;;;;;;;;5324771;28;19903;-76
2023/07/24 02:46:08;;;;;;;;;;;;;;;;;;5324481;28;19910;-74
2023/07/24 02:48:39;;;;;;;;;;;;;;;;;;5324832;28;19904;-75
2023/07/24 02:51:11;;;;;;;;;;;;;;;;;;5325221;28;19904;-75
2023/07/24 02:53:42;;;;;;;;;;;;;;;;;;5323778;28;19904;-75
2023/07/24 02:56:13;;;;;;;;;;;;;;;;;;5325362;28;20274;-76
2023/07/24 02:58:44;;;;;;;;;;;;;;;;;;5323626;28;19908;-73
2023/07/24 03:01:15;;;;;;;;;;;;;;;;;;5325263;28;20364;-75
2023/07/24 03:03:46;;;;;;;;;;;;;;;;;;5324534;28;19911;-74
2023/07/24 03:06:17;;;;;;;;;;;;;;;;;;5324363;28;19983;-75
2023/07/24 03:08:48;;;;;;;;;;;;;;;;;;5324506;28;19942;-75
2023/07/24 03:11:19;;;;;;;;;;;;;;;;;;5325048;28;20411;-74
2023/07/24 03:13:50;;;;;;;;;;;;;;;;;;5323607;28;19959;-75
2023/07/24 03:16:22;;;;;;;;;;;;;;;;;;5324844;28;20366;-75
2023/07/24 03:18:53;;;;;;;;;;;;;;;;;;5324072;28;19903;-75
2023/07/24 03:21:24;;;;;;;;;;;;;;;;;;5323631;28;19904;-75
2023/07/24 03:23:55;;;;;;;;;;;;;;;;;;5324518;28;19911;-75
2023/07/24 03:26:26;;;;;;;;;;;;;;;;;;5324517;28;19923;-75
2023/07/24 03:28:57;;;;;;;;;;;;;;;;;;5323493;28;19907;-75
2023/07/24 03:31:28;;;;;;;;;;;;;;;;;;5324491;28;19916;-76
2023/07/24 03:33:59;;;;;;;;;;;;;;;;;;5323952;28;19904;-76
2023/07/24 03:36:30;;;;;;;;;;;;;;;;;;5324026;28;19954;-76
2023/07/24 03:39:02;;;;;;;;;;;;;;;;;;5324694;28;20007;-76
2023/07/24 03:41:33;;;;;;;;;;;;;;;;;;5323145;28;19905;-77
2023/07/24 03:44:04;;;;;;;;;;;;;;;;;;5324581;28;19903;-76
2023/07/24 03:46:35;;;;;;;;;;;;;;;;;;5326470;28;19907;-77
2023/07/24 03:49:06;;;;;;;;;;;;;;;;;;5328107;28;19907;-76
2023/07/24 03:51:37;;;;;;;;;;;;;;;;;;5328302;28;20279;-76
2023/07/24 03:54:09;;;;;;;;;;;;;;;;;;5329094;28;20400;-76
2023/07/24 03:56:40;;;;;;;;;;;;;;;;;;5327544;28;19956;-76
2023/07/24 03:59:11;;;;;;;;;;;;;;;;;;5328827;28;19939;-76
2023/07/24 04:01:42;;;;;;;;;;;;;;;;;;5327816;28;19907;-76
2023/07/24 04:04:13;;;;;;;;;;;;;;;;;;5327965;28;19908;-76
2023/07/24 04:06:44;;;;;;;;;;;;;;;;;;5327977;28;19911;-76
2023/07/24 04:09:15;;;;;;;;;;;;;;;;;;5327833;28;19991;-76
2023/07/24 04:11:46;;;;;;;;;;;;;;;;;;5327923;28;19908;-76
2023/07/24 04:14:17;;;;;;;;;;;;;;;;;;5328365;28;19904;-76
2023/07/24 04:16:49;;;;;;;;;;;;;;;;;;5326732;28;20392;-76
2023/07/24 04:19:20;;;;;;;;;;;;;;;;;;5328361;28;19904;-75
2023/07/24 04:21:51;;;;;;;;;;;;;;;;;;5327517;28;20262;-75
2023/07/24 04:24:22;;;;;;;;;;;;;;;;;;5327395;28;19911;-75
2023/07/24 04:26:53;;;;;;;;;;;;;;;;;;5327381;28;20009;-75
2023/07/24 04:29:25;;;;;;;;;;;;;;;;;;5327658;28;20017;-75
2023/07/24 04:31:56;;;;;;;;;;;;;;;;;;5326763;28;19938;-76
2023/07/24 04:34:28;;;;;;;;;;;;;;;;;;5327476;28;19904;-76
2023/07/24 04:36:59;;;;;;;;;;;;;;;;;;5326855;28;20270;-76
2023/07/24 04:39:30;;;;;;;;;;;;;;;;;;5327077;28;19908;-76
2023/07/24 04:42:01;;;;;;;;;;;;;;;;;;5328074;28;19904;-77
2023/07/24 04:44:32;;;;;;;;;;;;;;;;;;5326235;28;19904;-76
2023/07/24 04:47:03;;;;;;;;;;;;;;;;;;5327809;28;19912;-76
2023/07/24 04:49:34;;;;;;;;;;;;;;;;;;5327000;28;19937;-76
2023/07/24 04:52:05;;;;;;;;;;;;;;;;;;5326792;28;19961;-76
2023/07/24 04:54:36;;;;;;;;;;;;;;;;;;5326825;28;20001;-76
2023/07/24 04:57:07;;;;;;;;;;;;;;;;;;5327198;28;19904;-75
2023/07/24 04:59:38;;;;;;;;;;;;;;;;;;5325747;28;19903;-75
2023/07/24 05:02:10;;;;;;;;;;;;;;;;;;5327406;28;19904;-75
2023/07/24 05:04:41;;;;;;;;;;;;;;;;;;5326671;28;19911;-76
2023/07/24 05:07:12;;;;;;;;;;;;;;;;;;5326548;28;19911;-75
2023/07/24 05:09:43;;;;;;;;;;;;;;;;;;5326874;28;19911;-75
2023/07/24 05:12:14;;;;;;;;;;;;;;;;;;5326425;28;19939;-75
2023/07/24 05:14:45;;;;;;;;;;;;;;;;;;5326563;28;20362;-75
2023/07/24 05:17:17;;;;;;;;;;;;;;;;;;5326982;28;19908;-75
2023/07/24 05:19:48;;;;;;;;;;;;;;;;;;5325874;28;19903;-75
2023/07/24 05:22:19;;;;;;;;;;;;;;;;;;5327142;28;19919;-75
2023/07/24 05:24:50;;;;;;;;;;;;;;;;;;5326283;28;19907;-75
2023/07/24 05:27:21;;;;;;;;;;;;;;;;;;5326019;28;19974;-74
2023/07/24 05:29:52;;;;;;;;;;;;;;;;;;5326202;28;20089;-74
2023/07/24 05:32:23;;;;;;;;;;;;;;;;;;5326436;28;19969;-75
2023/07/24 05:34:54;;;;;;;;;;;;;;;;;;5325907;28;19908;-75
2023/07/24 05:37:25;;;;;;;;;;;;;;;;;;5326354;28;19903;-74
2023/07/24 05:39:57;;;;;;;;;;;;;;;;;;5326461;28;20278;-74
2023/07/24 05:42:28;;;;;;;;;;;;;;;;;;5325851;28;19903;-74
2023/07/24 05:44:59;;;;;;;;;;;;;;;;;;5326533;28;19956;-75
2023/07/24 05:47:30;;;;;;;;;;;;;;;;;;5325089;28;20342;-75
2023/07/24 05:50:01;;;;;;;;;;;;;;;;;;5326370;28;19904;-75
2023/07/24 05:52:32;;;;;;;;;;;;;;;;;;5325705;28;19904;-76
2023/07/24 05:55:03;;;;;;;;;;;;;;;;;;5325458;28;19904;-75
2023/07/24 05:57:34;;;;;;;;;;;;;;;;;;5325925;28;20002;-75
2023/07/24 06:00:05;;;;;;;;;;;;;;;;;;5326399;28;19943;-75
2023/07/24 06:02:37;;;;;;;;;;;;;;;;;;5324952;28;19968;-75
2023/07/24 06:05:08;;;;;;;;;;;;;;;;;;5326143;28;19908;-74
2023/07/24 06:07:39;;;;;;;;;;;;;;;;;;5325625;28;20324;-76
2023/07/24 06:10:10;;;;;;;;;;;;;;;;;;5324107;28;20005;-75
2023/07/24 06:12:41;;;;;;;;;;;;;;;;;;5325248;28;20014;-75
2023/07/24 06:15:12;;;;;;;;;;;;;;;;;;5325986;28;20285;-75
2023/07/24 06:17:43;;;;;;;;;;;;;;;;;;5324317;28;19954;-75
2023/07/24 06:20:14;;;;;;;;;;;;;;;;;;5325897;28;20394;-76
2023/07/24 06:22:45;;;;;;;;;;;;;;;;;;5324528;28;19986;-75
2023/07/24 06:25:17;;;;;;;;;;;;;;;;;;5325633;28;19915;-75
2023/07/24 06:27:48;;;;;;;;;;;;;;;;;;5324894;28;19935;-76
2023/07/24 06:30:19;;;;;;;;;;;;;;;;;;5309469;28;19904;-77
2023/07/24 06:32:50;;;;;;;;;;;;;;;;;;5314289;28;19927;-75
2023/07/24 06:35:21;;;;;;;;;;;;;;;;;;5313292;28;19908;-75
2023/07/24 06:37:52;;;;;;;;;;;;;;;;;;5302024;28;19935;-75
2023/07/24 06:40:23;;;;;;;;;;;;;;;;;;5303699;28;20003;-75
2023/07/24 06:42:54;;;;;;;;;;;;;;;;;;5302350;28;19908;-76
2023/07/24 06:45:25;;;;;;;;;;;;;;;;;;5302049;28;19904;-76
2023/07/24 06:47:56;;;;;;;;;;;;;;;;;;5302123;28;19922;-81
2023/07/24 06:50:28;;;;;;;;;;;;;;;;;;5303919;28;20352;-80
2023/07/24 06:52:59;;;;;;;;;;;;;;;;;;5303059;28;19907;-80
2023/07/24 06:55:30;;;;;;;;;;;;;;;;;;5303510;28;20307;-81
2023/07/24 06:58:01;;;;;;;;;;;;;;;;;;5303466;28;19904;-82
2023/07/24 07:00:32;;;;;;;;;;;;;;;;;;5303049;28;19969;-82
2023/07/24 07:03:03;;;;;;;;;;;;;;;;;;5303937;28;19904;-81
2023/07/24 07:05:34;;;;;;;;;;;;;;;;;;5302594;28;19911;-81
2023/07/24 07:08:05;;;;;;;;;;;;;;;;;;5303888;28;20381;-79
2023/07/24 07:10:36;;;;;;;;;;;;;;;;;;5302939;28;19908;-81
2023/07/24 07:13:08;;;;;;;;;;;;;;;;;;5303208;28;19911;-77
2023/07/24 07:15:39;;;;;;;;;;;;;;;;;;5303229;28;19990;-78
2023/07/24 07:18:10;;;;;;;;;;;;;;;;;;5304768;28;19907;-78
2023/07/24 07:20:41;;;;;;;;;;;;;;;;;;5303163;28;19903;-78
2023/07/24 07:23:12;;;;;;;;;;;;;;;;;;5303568;28;19911;-77
2023/07/24 07:25:45;;;;;;;;;;;;;;;;;;5302275;28;19908;-77
2023/07/24 07:28:16;;;;;;;;;;;;;;;;;;5303323;28;20113;-76
2023/07/24 07:30:47;;;;;;;;;;;;;;;;;;5302749;28;19908;-76
2023/07/24 07:33:21;;;;;;;;;;;;;;;;;;5302288;28;19926;-76
2023/07/24 07:35:52;;;;;;;;;;;;;;;;;;5302837;28;19908;-78
2023/07/24 07:38:24;;;;;;;;;;;;;;;;;;5303223;28;20259;-78
2023/07/24 07:40:55;;;;;;;;;;;;;;;;;;5302525;28;19904;-78
2023/07/24 07:43:26;;;;;;;;;;;;;;;;;;5303635;28;19911;-78
2023/07/24 07:45:59;;;;;;;;;;;;;;;;;;5303074;28;19911;-79
2023/07/24 07:48:30;;;;;;;;;;;;;;;;;;5302945;28;19966;-81
2023/07/24 07:51:01;;;;;;;;;;;;;;;;;;5304167;28;19907;-80
2023/07/24 07:53:32;;;;;;;;;;;;;;;;;;5303881;28;19930;-79
2023/07/24 07:56:03;;;;;;;;;;;;;;;;;;5304488;28;19904;-80
2023/07/24 07:58:34;;;;;;;;;;;;;;;;;;5304450;28;19904;-80
2023/07/24 08:01:05;;;;;;;;;;;;;;;;;;5304288;28;19912;-79
2023/07/24 08:03:36;;;;;;;;;;;;;;;;;;5304000;28;19943;-76
2023/07/24 08:06:08;;;;;;;;;;;;;;;;;;5323234;28;20335;-78
2023/07/24 08:08:39;;;;;;;;;;;;;;;;;;5322573;28;19986;-78
2023/07/24 08:11:10;;;;;;;;;;;;;;;;;;5323631;28;19911;-78
2023/07/24 08:13:41;;;;;;;;;;;;;;;;;;5322785;28;19950;-77
2023/07/24 08:16:17;;;;;;;;;;;;;;;;;;5321804;28;20329;-76
2023/07/24 08:18:48;;;;;;;;;;;;;;;;;;5323716;28;20274;-77
2023/07/24 08:21:19;;;;;;;;;;;;;;;;;;5324229;28;19904;-76
2023/07/24 08:23:50;;;;;;;;;;;;;;;;;;5322822;28;19926;-76
2023/07/24 08:26:21;;;;;;;;;;;;;;;;;;5323563;28;19911;-79
2023/07/24 08:28:53;;;;;;;;;;;;;;;;;;5323635;28;19908;-78
2023/07/24 08:31:24;;;;;;;;;;;;;;;;;;5322659;28;19919;-76
2023/07/24 08:33:55;;;;;;;;;;;;;;;;;;5326070;28;19915;-76
2023/07/24 08:36:26;;;;;;;;;;;;;;;;;;5326932;28;19908;-76
2023/07/24 08:38:57;;;;;;;;;;;;;;;;;;5327228;28;19904;-75
2023/07/24 08:41:29;;;;;;;;;;;;;;;;;;5327311;28;19908;-74
2023/07/24 08:44:00;;;;;;;;;;;;;;;;;;5326907;28;19911;-74
2023/07/24 08:46:31;;;;;;;;;;;;;;;;;;5326965;28;19903;-74
2023/07/24 08:49:02;;;;;;;;;;;;;;;;;;5327428;28;19903;-73
2023/07/24 08:51:34;;;;;;;;;;;;;;;;;;5325959;28;19903;-74
2023/07/24 08:54:05;;;;;;;;;;;;;;;;;;5327508;28;19961;-73
2023/07/24 08:56:36;;;;;;;;;;;;;;;;;;5326947;28;20365;-73
2023/07/24 08:59:07;;;;;;;;;;;;;;;;;;5326404;28;19929;-73
2023/07/24 09:01:38;;;;;;;;;;;;;;;;;;5326873;28;19904;-73
2023/07/24 09:04:09;;;;;;;;;;;;;;;;;;5326652;28;19904;-73
2023/07/24 09:06:41;;;;;;;;;;;;;;;;;;5326287;28;20446;-73
2023/07/24 09:09:12;;;;;;;;;;;;;;;;;;5326769;28;19994;-73
2023/07/24 09:11:43;;;;;;;;;;;;;;;;;;5325411;28;19907;-74
2023/07/24 09:14:14;;;;;;;;;;;;;;;;;;5326823;28;20355;-74
2023/07/24 09:16:45;;;;;;;;;;;;;;;;;;5325974;28;19911;-74
2023/07/24 09:19:16;;;;;;;;;;;;;;;;;;5326058;28;20274;-74
2023/07/24 09:21:47;;;;;;;;;;;;;;;;;;5326289;28;19923;-74
2023/07/24 09:24:19;;;;;;;;;;;;;;;;;;5326688;28;20357;-74
2023/07/24 09:26:50;;;;;;;;;;;;;;;;;;5325395;28;19915;-74
2023/07/24 09:29:21;;;;;;;;;;;;;;;;;;5326578;28;19950;-74
2023/07/24 09:31:52;;;;;;;;;;;;;;;;;;5326072;28;20063;-74
2023/07/24 09:34:25;;;;;;;;;;;;;;;;;;5325474;28;19904;-75
2023/07/24 09:36:56;;;;;;;;;;;;;;;;;;5326296;28;19966;-74
2023/07/24 09:39:27;;;;;;;;;;;;;;;;;;5325246;28;19946;-74
2023/07/24 09:41:59;;;;;;;;;;;;;;;;;;5326339;28;19904;-74
2023/07/24 09:44:30;;;;;;;;;;;;;;;;;;5325971;28;19904;-74
2023/07/24 09:47:01;;;;;;;;;;;;;;;;;;5325679;28;19919;-74
2023/07/24 09:49:32;;;;;;;;;;;;;;;;;;5325705;28;19910;-74
2023/07/24 09:52:03;;;;;;;;;;;;;;;;;;5326213;28;20354;-74
2023/07/24 09:54:34;;;;;;;;;;;;;;;;;;5325050;28;19904;-74
2023/07/24 09:57:05;;;;;;;;;;;;;;;;;;5326190;28;19911;-74
2023/07/24 09:59:36;;;;;;;;;;;;;;;;;;5325596;28;19969;-73
2023/07/24 10:02:07;;;;;;;;;;;;;;;;;;5325187;28;19904;-74
2023/07/24 10:04:40;;;;;;;;;;;;;;;;;;5325236;28;20261;-74
2023/07/24 10:07:11;;;;;;;;;;;;;;;;;;5325932;28;20003;-73
2023/07/24 10:09:42;;;;;;;;;;;;;;;;;;5324464;28;19998;-73
2023/07/24 10:12:13;;;;;;;;;;;;;;;;;;5325950;28;19910;-72
2023/07/24 10:14:44;;;;;;;;;;;;;;;;;;5324411;28;19904;-73
2023/07/24 10:17:15;;;;;;;;;;;;;;;;;;5325606;28;19903;-72
2023/07/24 10:19:46;;;;;;;;;;;;;;;;;;5324900;28;19934;-72
2023/07/24 10:22:19;;;;;;;;;;;;;;;;;;5324760;28;19904;-72
2023/07/24 10:24:50;;;;;;;;;;;;;;;;;;5324992;28;20274;-71
2023/07/24 10:27:21;;;;;;;;;;;;;;;;;;5325365;28;19918;-72
2023/07/24 10:29:52;;;;;;;;;;;;;;;;;;5324216;28;19904;-71
2023/07/24 10:32:23;;;;;;;;;;;;;;;;;;5306796;28;19922;-72
2023/07/24 10:34:54;;;;;;;;;;;;;;;;;;5325150;28;20317;-71
2023/07/24 10:37:25;;;;;;;;;;;;;;;;;;5323999;28;19904;-72
2023/07/24 10:39:56;;;;;;;;;;;;;;;;;;5324807;28;19907;-73
2023/07/24 10:42:27;;;;;;;;;;;;;;;;;;5324828;28;19907;-73
2023/07/24 10:44:59;;;;;;;;;;;;;;;;;;5324205;28;20381;-74
2023/07/24 10:47:30;;;;;;;;;;;;;;;;;;5324551;28;19938;-74
2023/07/24 10:50:02;;;;;;;;;;;;;;;;;;5324318;28;19953;-74
2023/07/24 10:52:33;;;;;;;;;;;;;;;;;;5324153;28;19904;-74
2023/07/24 10:55:04;;;;;;;;;;;;;;;;;;5324802;28;19960;-74
2023/07/24 10:57:36;;;;;;;;;;;;;;;;;;5323645;28;20346;-75
2023/07/24 11:00:07;;;;;;;;;;;;;;;;;;5324625;28;19914;-73
2023/07/24 11:02:38;;;;;;;;;;;;;;;;;;5301282;28;19907;-71
2023/07/24 11:05:09;;;;;;;;;;;;;;;;;;5302592;28;19911;-73
2023/07/24 11:07:40;;;;;;;;;;;;;;;;;;5303005;28;20267;-74
2023/07/24 11:10:11;;;;;;;;;;;;;;;;;;5303499;28;19911;-71
2023/07/24 11:12:42;;;;;;;;;;;;;;;;;;5301754;28;20366;-75
2023/07/24 11:15:13;;;;;;;;;;;;;;;;;;5303416;28;20250;-75
2023/07/24 11:17:44;;;;;;;;;;;;;;;;;;5302198;28;19915;-75
2023/07/24 11:20:16;;;;;;;;;;;;;;;;;;5302849;28;20369;-74
2023/07/24 11:22:47;;;;;;;;;;;;;;;;;;5302784;28;19979;-75
2023/07/24 11:25:18;;;;;;;;;;;;;;;;;;5302573;28;19944;-75
2023/07/24 11:27:49;;;;;;;;;;;;;;;;;;5302516;28;19966;-75
2023/07/24 11:30:20;;;;;;;;;;;;;;;;;;5303245;28;19995;-75
2023/07/24 11:32:51;;;;;;;;;;;;;;;;;;5301725;28;20324;-75
2023/07/24 11:35:22;;;;;;;;;;;;;;;;;;5302087;28;20320;-75
2023/07/24 11:37:53;;;;;;;;;;;;;;;;;;5301438;28;19957;-75
2023/07/24 11:40:25;;;;;;;;;;;;;;;;;;5302253;28;19908;-75
2023/07/24 11:42:56;;;;;;;;;;;;;;;;;;5303206;28;19911;-75
2023/07/24 11:45:27;;;;;;;;;;;;;;;;;;5303154;28;19915;-75
2023/07/24 11:47:58;;;;;;;;;;;;;;;;;;5302236;28;20006;-75
2023/07/24 11:50:29;;;;;;;;;;;;;;;;;;5302792;28;20053;-75
2023/07/24 11:53:00;;;;;;;;;;;;;;;;;;5302401;28;19911;-75
2023/07/24 11:55:31;;;;;;;;;;;;;;;;;;5302622;28;19904;-75
2023/07/24 11:58:03;;;;;;;;;;;;;;;;;;5303340;28;19904;-75
2023/07/24 12:00:34;;;;;;;;;;;;;;;;;;5301866;28;19908;-75
2023/07/24 12:03:07;;;;;;;;;;;;;;;;;;5303092;28;19919;-75
2023/07/24 12:05:38;;;;;;;;;;;;;;;;;;5302302;28;20329;-75
2023/07/24 12:08:09;;;;;;;;;;;;;;;;;;5303809;28;20007;-72
2023/07/24 12:10:40;;;;;;;;;;;;;;;;;;5306625;28;19939;-72
2023/07/24 12:13:11;;;;;;;;;;;;;;;;;;5307182;28;20455;-73
2023/07/24 12:15:42;;;;;;;;;;;;;;;;;;5305387;28;19948;-72
2023/07/24 12:18:14;;;;;;;;;;;;;;;;;;5306850;28;19904;-72
2023/07/24 12:20:45;;;;;;;;;;;;;;;;;;5306136;28;20339;-74
2023/07/24 12:23:16;;;;;;;;;;;;;;;;;;5306030;28;19903;-74
2023/07/24 12:25:48;;;;;;;;;;;;;;;;;;5306120;28;19903;-73
2023/07/24 12:28:19;;;;;;;;;;;;;;;;;;5305738;28;19919;-74
2023/07/24 12:30:50;;;;;;;;;;;;;;;;;;5306054;28;20369;-74
2023/07/24 12:33:23;;;;;;;;;;;;;;;;;;5306445;28;20266;-74
2023/07/24 12:35:54;;;;;;;;;;;;;;;;;;5305603;28;19900;-74
2023/07/24 12:38:25;;;;;;;;;;;;;;;;;;5306286;28;19910;-75
2023/07/24 12:40:56;;;;;;;;;;;;;;;;;;5306136;28;19974;-74
2023/07/24 12:43:27;;;;;;;;;;;;;;;;;;5301582;28;20355;-75
2023/07/24 12:45:59;;;;;;;;;;;;;;;;;;5305753;28;19904;-75
2023/07/24 12:48:31;;;;;;;;;;;;;;;;;;5308486;28;19955;-74
2023/07/24 12:51:02;;;;;;;;;;;;;;;;;;5305407;28;20347;-75
2023/07/24 12:53:33;;;;;;;;;;;;;;;;;;5305241;28;19904;-74
2023/07/24 12:56:04;;;;;;;;;;;;;;;;;;5306096;28;19972;-74
2023/07/24 12:58:36;;;;;;;;;;;;;;;;;;5308802;28;19903;-74
2023/07/24 13:01:07;;;;;;;;;;;;;;;;;;5305849;28;19950;-74
2023/07/24 13:03:38;;;;;;;;;;;;;;;;;;5304572;28;19942;-74
2023/07/24 13:06:09;;;;;;;;;;;;;;;;;;5306107;28;19904;-74
2023/07/24 13:08:40;;;;;;;;;;;;;;;;;;5304400;28;19912;-73
2023/07/24 13:11:11;;;;;;;;;;;;;;;;;;5303955;28;19918;-73
2023/07/24 13:13:42;;;;;;;;;;;;;;;;;;5305098;28;20313;-76
2023/07/24 13:16:13;;;;;;;;;;;;;;;;;;5305734;28;19904;-76
2023/07/24 13:18:44;;;;;;;;;;;;;;;;;;5303869;28;19905;-73
2023/07/24 13:21:15;;;;;;;;;;;;;;;;;;5305777;28;19911;-77
2023/07/24 13:23:47;;;;;;;;;;;;;;;;;;5305244;28;19922;-73
2023/07/24 13:26:18;;;;;;;;;;;;;;;;;;5304913;28;19911;-73
2023/07/24 13:28:50;;;;;;;;;;;;;;;;;;5304865;28;19916;-73
2023/07/24 13:31:24;;;;;;;;;;;;;;;;;;5305542;28;20313;-73
2023/07/24 13:33:55;;;;;;;;;;;;;;;;;;5304687;28;19904;-74
2023/07/24 13:36:26;;;;;;;;;;;;;;;;;;5305090;28;19914;-76
2023/07/24 13:38:57;;;;;;;;;;;;;;;;;;5304070;28;20034;-74
2023/07/24 13:41:29;;;;;;;;;;;;;;;;;;5304745;28;20293;-75
2023/07/24 13:44:00;;;;;;;;;;;;;;;;;;5305126;28;19904;-75
2023/07/24 13:46:31;;;;;;;;;;;;;;;;;;5303739;28;19911;-75
2023/07/24 13:49:03;;;;;;;;;;;;;;;;;;5305145;28;19904;-75
2023/07/24 13:51:34;;;;;;;;;;;;;;;;;;5304333;28;19911;-75
2023/07/24 13:54:05;;;;;;;;;;;;;;;;;;5304291;28;20246;-74
2023/07/24 13:56:38;;;;;;;;;;;;;;;;;;5304421;28;20018;-76
2023/07/24 13:59:09;;;;;;;;;;;;;;;;;;5305096;28;20377;-76
2023/07/24 14:01:41;;;;;;;;;;;;;;;;;;5303446;28;19904;-76
2023/07/24 14:04:12;;;;;;;;;;;;;;;;;;5304817;28;19908;-75
2023/07/24 14:06:43;;;;;;;;;;;;;;;;;;5303342;28;19908;-76
2023/07/24 14:09:14;;;;;;;;;;;;;;;;;;5304657;28;19927;-75
2023/07/24 14:11:45;;;;;;;;;;;;;;;;;;5304252;28;20317;-75
2023/07/24 14:14:16;;;;;;;;;;;;;;;;;;5303989;28;19911;-75
2023/07/24 14:16:47;;;;;;;;;;;;;;;;;;5304011;28;19924;-76
2023/07/24 14:19:19;;;;;;;;;;;;;;;;;;5304600;28;19929;-75
2023/07/24 14:21:50;;;;;;;;;;;;;;;;;;5303312;28;20386;-74
2023/07/24 14:24:21;;;;;;;;;;;;;;;;;;5304544;28;19911;-75
2023/07/24 14:26:52;;;;;;;;;;;;;;;;;;5304215;28;20351;-75
2023/07/24 14:29:23;;;;;;;;;;;;;;;;;;5303512;28;19915;-75
2023/07/24 14:31:54;;;;;;;;;;;;;;;;;;5303644;28;19916;-75
2023/07/24 14:34:26;;;;;;;;;;;;;;;;;;5304961;28;19904;-75
2023/07/24 14:36:57;;;;;;;;;;;;;;;;;;5304759;28;19941;-75
2023/07/24 14:39:28;;;;;;;;;;;;;;;;;;5305230;28;19904;-75
2023/07/24 14:41:59;;;;;;;;;;;;;;;;;;5304948;28;19957;-75
2023/07/24 14:44:30;;;;;;;;;;;;;;;;;;5304258;28;19994;-76
2023/07/24 14:47:01;;;;;;;;;;;;;;;;;;5303276;28;19908;-76
2023/07/24 14:49:32;;;;;;;;;;;;;;;;;;5303538;28;19904;-76
2023/07/24 14:52:03;;;;;;;;;;;;;;;;;;5305423;28;19918;-75
2023/07/24 14:54:34;;;;;;;;;;;;;;;;;;5304297;28;19908;-75
2023/07/24 14:57:06;;;;;;;;;;;;;;;;;;5303283;28;19950;-75
2023/07/24 14:59:37;;;;;;;;;;;;;;;;;;5303434;28;20007;-75
2023/07/24 15:02:08;;;;;;;;;;;;;;;;;;5304044;28;19962;-75
2023/07/24 15:04:39;;;;;;;;;;;;;;;;;;5302248;28;19904;-75
2023/07/24 15:07:10;;;;;;;;;;;;;;;;;;5303573;28;19934;-75
2023/07/24 15:09:41;;;;;;;;;;;;;;;;;;5303389;28;19908;-75
2023/07/24 15:12:13;;;;;;;;;;;;;;;;;;5303102;28;19904;-74
2023/07/24 15:14:44;;;;;;;;;;;;;;;;;;5302954;28;19953;-74
2023/07/24 15:17:15;;;;;;;;;;;;;;;;;;5303292;28;20360;-75
2023/07/24 15:19:46;;;;;;;;;;;;;;;;;;5303252;28;20355;-75
2023/07/24 15:22:18;;;;;;;;;;;;;;;;;;5303908;28;19904;-75
2023/07/24 15:24:49;;;;;;;;;;;;;;;;;;5302672;28;19908;-76
2023/07/24 15:27:21;;;;;;;;;;;;;;;;;;5303538;28;20282;-76
2023/07/24 15:29:52;;;;;;;;;;;;;;;;;;5302699;28;19904;-76
2023/07/24 15:32:23;;;;;;;;;;;;;;;;;;5298485;28;19963;-76
2023/07/24 15:34:54;;;;;;;;;;;;;;;;;;5302648;28;20369;-77
2023/07/24 15:37:25;;;;;;;;;;;;;;;;;;5303020;28;19927;-75
2023/07/24 15:39:57;;;;;;;;;;;;;;;;;;5302010;28;19915;-75
2023/07/24 15:42:28;;;;;;;;;;;;;;;;;;5304281;28;19904;-75
2023/07/24 15:44:59;;;;;;;;;;;;;;;;;;5307110;28;20250;-75
2023/07/24 15:47:30;;;;;;;;;;;;;;;;;;5305897;28;19912;-75
2023/07/24 15:50:02;;;;;;;;;;;;;;;;;;5307321;28;20339;-75
2023/07/24 15:52:33;;;;;;;;;;;;;;;;;;5306052;28;19904;-75
2023/07/24 15:55:04;;;;;;;;;;;;;;;;;;5307445;28;19904;-74
2023/07/24 15:57:35;;;;;;;;;;;;;;;;;;5306475;28;19915;-75
2023/07/24 16:00:08;;;;;;;;;;;;;;;;;;5305134;28;19904;-74
2023/07/24 16:02:39;;;;;;;;;;;;;;;;;;5306614;28;20345;-74
2023/07/24 16:05:10;;;;;;;;;;;;;;;;;;5307331;28;19950;-75
2023/07/24 16:07:41;;;;;;;;;;;;;;;;;;5305618;28;19912;-74
2023/07/24 16:10:12;;;;;;;;;;;;;;;;;;5307074;28;20019;-74
2023/07/24 16:12:44;;;;;;;;;;;;;;;;;;5306533;28;19904;-74
2023/07/24 16:15:15;;;;;;;;;;;;;;;;;;5306313;28;19961;-74
2023/07/24 16:17:46;;;;;;;;;;;;;;;;;;5306544;28;19911;-74
2023/07/24 16:20:17;;;;;;;;;;;;;;;;;;5306100;28;19911;-74
2023/07/24 16:22:48;;;;;;;;;;;;;;;;;;5306260;28;19904;-74
2023/07/24 16:25:20;;;;;;;;;;;;;;;;;;5306844;28;19904;-74
2023/07/24 16:27:51;;;;;;;;;;;;;;;;;;5305135;28;19919;-75
2023/07/24 16:30:22;;;;;;;;;;;;;;;;;;5307102;28;19904;-75
2023/07/24 16:32:53;;;;;;;;;;;;;;;;;;5306043;28;20006;-75
2023/07/24 16:35:24;;;;;;;;;;;;;;;;;;5304940;28;20369;-73
2023/07/24 16:37:55;;;;;;;;;;;;;;;;;;5306172;28;20267;-74
2023/07/24 16:40:26;;;;;;;;;;;;;;;;;;5305977;28;19991;-74
2023/07/24 16:42:57;;;;;;;;;;;;;;;;;;5305189;28;19904;-73
2023/07/24 16:45:28;;;;;;;;;;;;;;;;;;5306194;28;19989;-74
2023/07/24 16:48:00;;;;;;;;;;;;;;;;;;5305166;28;20350;-75
2023/07/24 16:50:31;;;;;;;;;;;;;;;;;;5286943;28;19904;-75
2023/07/24 16:53:02;;;;;;;;;;;;;;;;;;5305376;28;19911;-74
2023/07/24 16:55:34;;;;;;;;;;;;;;;;;;5304697;28;19904;-74
2023/07/24 16:58:05;;;;;;;;;;;;;;;;;;5306392;28;19958;-74
2023/07/24 17:00:36;;;;;;;;;;;;;;;;;;5305581;28;20407;-74
2023/07/24 17:03:07;;;;;;;;;;;;;;;;;;5305355;28;20301;-74
2023/07/24 17:05:38;;;;;;;;;;;;;;;;;;5305324;28;19904;-74
2023/07/24 17:08:09;;;;;;;;;;;;;;;;;;5306199;28;20404;-74
2023/07/24 17:10:40;;;;;;;;;;;;;;;;;;5304270;28;19908;-75
2023/07/24 17:13:12;;;;;;;;;;;;;;;;;;5306026;28;20248;-73